createdAt,value
2018-09-18T00:13:04.142Z,16.7
2018-09-18T00:28:21.210Z,16.6
2018-09-18T00:43:37.837Z,16.5
2018-09-18T00:58:46.932Z,16.4
2018-09-18T01:14:11.886Z,16.3
2018-09-18T01:29:28.618Z,16.3
2018-09-18T01:44:45.890Z,16.3
2018-09-18T02:00:02.483Z,16.2
2018-09-18T02:15:18.298Z,16.2
2018-09-18T02:30:36.307Z,16.2
2018-09-18T02:45:52.893Z,16.2
2018-09-18T03:01:09.620Z,16.1
2018-09-18T03:16:18.997Z,16
2018-09-18T03:31:43.100Z,16
2018-09-18T03:46:59.658Z,15.9
2018-09-18T04:02:16.436Z,15.9
2018-09-18T04:17:20.171Z,15.8
2018-09-18T04:32:49.865Z,15.7
2018-09-18T04:48:06.674Z,15.7
2018-09-18T05:03:23.126Z,15.7
2018-09-18T05:18:39.755Z,15.7
2018-09-18T05:33:52.592Z,15.8
2018-09-18T05:49:13.115Z,16
2018-09-18T06:04:29.924Z,16.2
2018-09-18T06:19:47.067Z,16.5
2018-09-18T06:34:57.012Z,16.9
2018-09-18T06:50:20.567Z,17.4
2018-09-18T07:05:38.324Z,18
2018-09-18T07:20:42.245Z,18.6
2018-09-18T07:36:14.406Z,19.4
2018-09-18T07:51:32.958Z,20.2
2018-09-18T08:06:52.431Z,21.2
2018-09-18T08:21:59.461Z,22
2018-09-18T08:37:29.810Z,22.9
2018-09-18T08:52:49.987Z,23.6
2018-09-18T09:08:10.081Z,24.3
2018-09-18T09:23:30.636Z,25.1
2018-09-18T09:38:47.161Z,25.8
2018-09-18T09:54:13.901Z,26.3
2018-09-18T10:09:34.892Z,26.5
2018-09-18T10:24:59.021Z,26.9
2018-09-18T10:40:02.511Z,27.3
2018-09-18T10:55:37.657Z,27.6
2018-09-18T11:11:08.100Z,27.9
2018-09-18T11:26:33.648Z,28.4
2018-09-18T11:41:58.375Z,28.9
2018-09-18T11:57:23.093Z,29.3
2018-09-18T12:12:33.345Z,29.6
2018-09-18T12:28:09.048Z,30.1
2018-09-18T12:43:41.690Z,30.3
2018-09-18T12:59:08.978Z,30.7
2018-09-18T13:14:36.254Z,31
2018-09-18T13:30:04.342Z,31.1
2018-09-18T13:45:09.172Z,31.2
2018-09-18T14:25:10.357Z,31.5
2018-09-18T14:40:19.124Z,31.3
2018-09-18T15:41:30.987Z,38.2
2018-09-18T15:56:57.994Z,30.3
2018-09-18T16:12:24.629Z,31
2018-09-18T16:27:29.155Z,30.5
2018-09-18T16:43:04.883Z,29.4
2018-09-18T16:58:40.329Z,28.5
2018-09-18T17:14:05.626Z,27.8
2018-09-18T17:29:28.168Z,27
2018-09-18T17:44:51.166Z,26.4
2018-09-18T17:59:55.762Z,25.9
2018-09-18T18:15:29.546Z,25.4
2018-09-18T18:30:54.995Z,25.1
2018-09-18T18:46:15.509Z,24.7
2018-09-18T19:01:36.732Z,24.3
2018-09-18T19:16:41.750Z,24
2018-09-18T19:32:14.251Z,23.6
2018-09-18T19:47:37.048Z,23.3
2018-09-18T20:02:57.182Z,22.9
2018-09-18T20:18:16.517Z,22.6
2018-09-18T20:33:22.300Z,22.3
2018-09-18T20:48:54.497Z,22
2018-09-18T21:04:14.105Z,21.8
2018-09-18T21:19:33.578Z,21.8
2018-09-18T21:34:52.996Z,21.5
2018-09-18T21:50:01.575Z,21.5
2018-09-18T22:05:31.085Z,21.3
2018-09-18T22:20:49.777Z,20.9
2018-09-18T22:36:08.338Z,20.5
2018-09-18T22:51:27.061Z,20.3
2018-09-18T23:06:39.320Z,20.1
2018-09-18T23:22:03.836Z,19.8
2018-09-18T23:37:22.074Z,19.6
2018-09-18T23:52:40.348Z,19.3
